createdAt,value
2023-05-16T00:12:45.941Z,8.98
2023-05-16T00:27:47.533Z,9.24
2023-05-16T00:42:50.775Z,9.28
2023-05-16T00:57:52.366Z,9.09
2023-05-16T01:12:53.958Z,8.95
2023-05-16T01:27:56.515Z,8.63
2023-05-16T01:42:58.082Z,8.53
2023-05-16T01:57:59.662Z,8.76
2023-05-16T02:13:01.567Z,8.72
2023-05-16T02:28:03.434Z,8.52
2023-05-16T02:43:05.033Z,8.72
2023-05-16T02:58:06.597Z,8.59
2023-05-16T03:13:08.209Z,8.50
2023-05-16T03:28:10.143Z,8.63
2023-05-16T03:43:11.740Z,8.80
2023-05-16T03:58:13.323Z,8.95
2023-05-16T04:13:15.371Z,9.14
2023-05-16T04:28:16.978Z,9.37
2023-05-16T04:43:18.588Z,9.51
2023-05-16T04:58:20.369Z,9.66
2023-05-16T05:13:21.976Z,9.81
2023-05-16T05:28:23.601Z,10.00
2023-05-16T05:43:25.183Z,10.25
2023-05-16T05:58:26.765Z,10.28
2023-05-16T06:13:28.431Z,10.46
2023-05-16T06:28:30.000Z,10.70
2023-05-16T06:43:32.281Z,10.85
2023-05-16T06:58:33.928Z,10.85
2023-05-16T07:13:36.197Z,10.81
2023-05-16T07:28:37.875Z,10.88
2023-05-16T07:43:39.522Z,10.98
2023-05-16T07:58:41.210Z,11.17
2023-05-16T08:13:42.845Z,11.35
2023-05-16T08:28:45.594Z,11.51
2023-05-16T08:43:47.216Z,10.98
2023-05-16T08:58:49.066Z,10.71
2023-05-16T09:13:51.333Z,10.67
2023-05-16T09:28:52.982Z,10.51
2023-05-16T09:43:54.614Z,9.72
2023-05-16T09:58:56.227Z,9.72
2023-05-16T10:13:57.959Z,9.89
2023-05-16T10:28:59.575Z,9.98
2023-05-16T10:44:02.915Z,10.10
2023-05-16T10:59:05.205Z,10.12
2023-05-16T11:14:06.818Z,10.49
2023-05-16T11:29:08.476Z,10.60
2023-05-16T11:44:10.098Z,10.95
2023-05-16T11:59:11.823Z,11.78
2023-05-16T12:14:13.516Z,11.58
2023-05-16T12:29:15.189Z,10.96
2023-05-16T12:44:20.096Z,10.69
2023-05-16T12:59:21.768Z,10.25
2023-05-16T13:14:23.460Z,10.48
2023-05-16T13:29:25.071Z,10.58
2023-05-16T13:44:27.281Z,10.25
2023-05-16T13:59:52.552Z,9.44
2023-05-16T14:14:50.622Z,9.69
2023-05-16T14:29:52.850Z,10.55
2023-05-16T14:44:54.486Z,10.53
2023-05-16T14:59:56.166Z,10.00
2023-05-16T15:14:57.781Z,10.15
2023-05-16T15:29:59.491Z,10.04
2023-05-16T15:45:01.119Z,9.99
2023-05-16T16:00:05.484Z,9.87
2023-05-16T16:15:13.369Z,9.99
2023-05-16T16:30:14.973Z,10.10
2023-05-16T16:45:16.576Z,10.12
2023-05-16T17:00:18.492Z,9.95
2023-05-16T17:15:20.173Z,9.89
2023-05-16T17:30:22.244Z,9.83
2023-05-16T17:45:23.849Z,9.82
2023-05-16T18:00:26.000Z,9.66
2023-05-16T18:15:29.081Z,9.38
2023-05-16T18:30:30.815Z,9.15
2023-05-16T18:45:36.348Z,9.15
2023-05-16T19:00:37.983Z,8.75
2023-05-16T19:15:39.632Z,8.66
2023-05-16T19:30:41.288Z,8.40
2023-05-16T19:45:43.022Z,8.52
2023-05-16T20:00:44.709Z,8.21
2023-05-16T20:15:46.318Z,7.56
2023-05-16T20:30:47.976Z,7.86
2023-05-16T20:45:49.586Z,7.72
2023-05-16T21:00:51.291Z,7.40
2023-05-16T21:15:52.934Z,7.39
2023-05-16T21:30:54.609Z,7.41
2023-05-16T21:45:56.222Z,7.25
2023-05-16T22:00:57.845Z,6.96
2023-05-16T22:16:04.618Z,6.84
2023-05-16T22:31:07.398Z,6.83
2023-05-16T22:46:09.023Z,6.85
2023-05-16T23:01:10.680Z,6.57
2023-05-16T23:16:12.307Z,6.45
2023-05-16T23:31:13.912Z,6.13
2023-05-16T23:46:15.547Z,5.79
